createdAt,value
2019-01-22T00:00:41.681Z,0.20
2019-01-22T00:03:07.720Z,0.20
2019-01-22T00:05:33.785Z,0.10
2019-01-22T00:07:59.828Z,0.20
2019-01-22T00:10:25.850Z,0.30
2019-01-22T00:12:52.100Z,0.30
2019-01-22T00:15:18.169Z,0.20
2019-01-22T00:17:44.242Z,0.30
2019-01-22T00:20:11.907Z,0.30
2019-01-22T00:22:37.953Z,0.20
2019-01-22T00:25:09.708Z,0.20
2019-01-22T00:27:35.768Z,0.30
2019-01-22T00:30:03.814Z,0.20
2019-01-22T00:32:30.081Z,0.30
2019-01-22T00:34:56.153Z,0.20
2019-01-22T00:37:22.182Z,0.30
2019-01-22T00:39:48.253Z,0.30
2019-01-22T00:42:14.295Z,0.30
2019-01-22T00:44:40.395Z,0.30
2019-01-22T00:47:06.436Z,0.30
2019-01-22T00:49:33.328Z,0.40
2019-01-22T00:51:59.384Z,0.30
2019-01-22T00:54:25.447Z,0.40
2019-01-22T00:56:51.610Z,0.40
2019-01-22T00:59:19.566Z,0.30
2019-01-22T01:01:45.697Z,0.30
2019-01-22T01:04:11.861Z,0.20
2019-01-22T01:06:38.204Z,0.20
2019-01-22T01:09:06.155Z,0.20
2019-01-22T01:11:32.243Z,0.20
2019-01-22T01:13:58.289Z,0.20
2019-01-22T01:16:24.335Z,0.10
2019-01-22T01:18:50.407Z,0.10
2019-01-22T01:21:17.033Z,0.10
2019-01-22T01:23:43.315Z,0.20
2019-01-22T01:26:09.465Z,0.30
2019-01-22T01:28:35.537Z,0.20
2019-01-22T01:31:01.552Z,0.30
2019-01-22T01:33:27.990Z,0.30
2019-01-22T01:35:54.211Z,0.20
2019-01-22T01:38:20.305Z,0.30
2019-01-22T01:40:46.913Z,0.30
2019-01-22T01:43:13.103Z,0.20
2019-01-22T01:45:39.225Z,0.10
2019-01-22T01:48:05.372Z,0.10
2019-01-22T01:50:31.429Z,0.20
2019-01-22T01:52:57.466Z,0.30
2019-01-22T01:55:23.537Z,0.30
2019-01-22T01:57:49.567Z,0.30
2019-01-22T02:00:17.745Z,0.30
2019-01-22T02:02:44.073Z,0.40
2019-01-22T02:05:10.104Z,0.40
2019-01-22T02:07:36.164Z,0.40
2019-01-22T02:10:05.365Z,0.40
2019-01-22T02:12:35.232Z,0.30
2019-01-22T02:15:03.783Z,0.20
2019-01-22T02:17:33.746Z,0.10
2019-01-22T02:20:09.679Z,0.20
2019-01-22T02:22:45.388Z,0.20
2019-01-22T02:25:27.028Z,0.10
2019-01-22T02:28:08.251Z,0.20
2019-01-22T02:30:50.512Z,0.20
2019-01-22T02:33:38.388Z,0.20
2019-01-22T02:36:17.743Z,0.20
2019-01-22T02:38:50.755Z,0.20
2019-01-22T02:41:20.621Z,0.20
2019-01-22T02:44:10.244Z,0.20
2019-01-22T02:46:46.228Z,0.30
2019-01-22T02:49:28.222Z,0.20
2019-01-22T02:52:03.956Z,0.20
2019-01-22T02:54:34.039Z,0.20
2019-01-22T02:57:09.940Z,0.30
2019-01-22T03:00:05.931Z,0.30
2019-01-22T03:02:41.879Z,0.30
2019-01-22T03:05:20.332Z,0.40
2019-01-22T03:07:53.700Z,0.30
2019-01-22T03:10:38.930Z,0.40
2019-01-22T03:13:14.952Z,0.40
2019-01-22T03:16:04.042Z,0.40
2019-01-22T03:18:48.690Z,0.40
2019-01-22T03:21:27.828Z,0.40
2019-01-22T03:24:00.259Z,0.40
2019-01-22T03:26:48.353Z,0.40
2019-01-22T03:29:26.665Z,0.50
2019-01-22T03:31:59.219Z,0.50
2019-01-22T03:34:44.455Z,0.50
2019-01-22T03:37:23.282Z,0.60
2019-01-22T03:39:53.832Z,0.60
2019-01-22T03:42:32.910Z,0.50
2019-01-22T03:45:18.300Z,0.60
2019-01-22T03:47:48.198Z,0.60
2019-01-22T03:50:51.358Z,0.60
2019-01-22T03:53:53.731Z,0.60
2019-01-22T03:56:36.829Z,0.60
2019-01-22T03:59:03.358Z,0.60
2019-01-22T04:01:29.665Z,0.50
2019-01-22T04:03:55.804Z,0.50
2019-01-22T04:06:22.483Z,0.50
2019-01-22T04:08:49.397Z,0.40
2019-01-22T04:11:17.209Z,0.30
2019-01-22T04:13:43.318Z,0.30
2019-01-22T04:16:12.474Z,0.30
2019-01-22T04:18:38.622Z,0.30
2019-01-22T04:21:05.734Z,0.30
2019-01-22T04:23:38.409Z,0.30
2019-01-22T04:26:11.372Z,0.30
2019-01-22T04:28:41.819Z,0.20
2019-01-22T04:31:14.990Z,0.20
2019-01-22T04:33:56.973Z,0.20
2019-01-22T04:36:58.818Z,0.20
2019-01-22T04:40:02.322Z,0.20
2019-01-22T04:42:47.575Z,0.20
2019-01-22T04:45:37.117Z,0.30
2019-01-22T04:48:10.106Z,0.20
2019-01-22T04:51:02.007Z,0.20
2019-01-22T04:53:56.094Z,0.20
2019-01-22T04:56:47.220Z,0.10
2019-01-22T04:59:32.110Z,0.10
2019-01-22T05:02:22.682Z,0.10
2019-01-22T05:04:58.617Z,0.10
2019-01-22T05:07:41.102Z,0.10
2019-01-22T05:10:28.580Z,0.10
2019-01-22T05:13:10.626Z,0.10
2019-01-22T05:15:40.481Z,0.20
2019-01-22T05:18:39.028Z,0.10
2019-01-22T05:21:27.866Z,0.10
2019-01-22T05:24:20.865Z,0.10
2019-01-22T05:27:19.685Z,0.00
2019-01-22T05:30:06.404Z,-0.10
2019-01-22T05:33:02.117Z,-0.10
2019-01-22T05:35:41.258Z,-0.10
2019-01-22T05:38:29.171Z,-0.10
2019-01-22T05:41:35.835Z,-0.20
2019-01-22T05:44:05.809Z,-0.20
2019-01-22T05:46:52.687Z,-0.30
2019-01-22T05:49:22.748Z,-0.30
2019-01-22T05:51:58.785Z,-0.30
2019-01-22T05:54:34.611Z,-0.40
2019-01-22T05:57:04.321Z,-0.50
2019-01-22T05:59:39.595Z,-0.50
2019-01-22T06:02:09.373Z,-0.60
2019-01-22T06:04:51.114Z,-0.60
2019-01-22T06:07:23.931Z,-0.70
2019-01-22T06:09:59.552Z,-0.70
2019-01-22T06:12:49.608Z,-0.80
2019-01-22T06:15:28.088Z,-0.80
2019-01-22T06:18:03.734Z,-0.80
2019-01-22T06:20:36.847Z,-0.90
2019-01-22T06:23:36.026Z,-0.90
2019-01-22T06:26:11.976Z,-0.90
2019-01-22T06:28:53.834Z,-1.00
2019-01-22T06:31:29.741Z,-0.90
2019-01-22T06:34:02.756Z,-0.90
2019-01-22T06:36:49.513Z,-0.90
2019-01-22T06:39:35.486Z,-0.80
2019-01-22T06:42:36.520Z,-0.90
2019-01-22T06:45:32.492Z,-1.00
2019-01-22T06:48:14.498Z,-1.00
2019-01-22T06:51:02.050Z,-1.10
2019-01-22T06:53:32.018Z,-1.10
2019-01-22T06:56:34.610Z,-1.20
2019-01-22T06:59:19.621Z,-1.20
2019-01-22T07:01:58.384Z,-1.20
2019-01-22T07:04:34.368Z,-1.30
2019-01-22T07:07:19.086Z,-1.30
2019-01-22T07:09:48.945Z,-1.30
2019-01-22T07:12:35.676Z,-1.40
2019-01-22T07:15:24.638Z,-1.40
2019-01-22T07:18:06.382Z,-1.40
2019-01-22T07:20:52.535Z,-1.50
2019-01-22T07:23:26.105Z,-1.50
2019-01-22T07:26:15.669Z,-1.60
2019-01-22T07:28:48.480Z,-1.60
2019-01-22T07:31:37.127Z,-1.70
2019-01-22T07:34:24.667Z,-1.70
2019-01-22T07:37:21.381Z,-1.70
2019-01-22T07:39:53.990Z,-1.80
2019-01-22T07:42:26.762Z,-1.80
2019-01-22T07:45:02.863Z,-1.30
2019-01-22T07:47:32.970Z,-1.30
2019-01-22T07:50:19.549Z,-1.40
2019-01-22T07:52:57.828Z,-0.60
2019-01-22T07:55:30.505Z,-0.60
2019-01-22T07:58:30.440Z,-0.70
2019-01-22T08:01:26.526Z,-1.10
2019-01-22T08:04:13.582Z,-1.40
2019-01-22T08:07:00.502Z,-1.50
2019-01-22T08:09:33.276Z,-1.70
2019-01-22T08:12:06.398Z,-1.70
2019-01-22T08:14:44.835Z,-1.70
2019-01-22T08:17:14.709Z,-1.80
2019-01-22T08:19:49.864Z,-1.70
2019-01-22T08:22:47.154Z,-1.80
2019-01-22T08:25:26.412Z,-1.70
2019-01-22T08:28:07.810Z,-1.70
2019-01-22T08:30:37.669Z,-1.70
2019-01-22T08:33:10.828Z,-1.70
2019-01-22T08:36:08.133Z,-1.70
2019-01-22T08:38:50.239Z,-1.70
2019-01-22T08:41:22.874Z,-1.70
2019-01-22T08:44:13.061Z,-1.60
2019-01-22T08:46:54.970Z,-1.50
2019-01-22T08:49:36.906Z,-1.40
2019-01-22T08:52:06.856Z,-1.40
2019-01-22T08:54:51.937Z,-1.30
2019-01-22T08:57:47.618Z,-1.20
2019-01-22T09:00:17.504Z,-1.20
2019-01-22T09:02:55.971Z,-1.30
2019-01-22T09:05:25.822Z,-1.20
2019-01-22T09:07:55.781Z,-1.20
2019-01-22T09:10:31.749Z,-1.20
2019-01-22T09:13:01.971Z,-1.20
2019-01-22T09:15:44.306Z,-1.10
2019-01-22T09:18:22.802Z,-1.10
2019-01-22T09:20:58.463Z,-1.10
2019-01-22T09:23:54.239Z,-1.10
2019-01-22T09:26:27.117Z,-1.20
2019-01-22T09:29:25.255Z,-1.20
2019-01-22T09:32:04.052Z,-1.30
2019-01-22T09:34:43.354Z,-1.20
2019-01-22T09:37:13.229Z,-1.20
2019-01-22T09:39:39.930Z,-1.10
2019-01-22T09:42:06.935Z,-1.00
2019-01-22T09:44:33.000Z,-1.10
2019-01-22T09:46:59.092Z,-1.10
2019-01-22T09:49:25.249Z,-1.20
2019-01-22T09:51:51.546Z,-1.20
2019-01-22T09:54:17.606Z,-1.10
2019-01-22T09:56:43.677Z,-1.00
2019-01-22T09:59:09.742Z,-1.00
2019-01-22T10:01:35.924Z,-0.90
2019-01-22T10:04:03.534Z,-1.00
2019-01-22T10:06:29.920Z,-0.80
2019-01-22T10:08:56.205Z,-0.90
2019-01-22T10:11:22.234Z,-0.90
2019-01-22T10:13:48.521Z,-0.90
2019-01-22T10:16:15.104Z,-1.00
2019-01-22T10:18:41.154Z,-1.00
2019-01-22T10:21:07.198Z,-0.90
2019-01-22T10:23:33.381Z,-0.90
2019-01-22T10:25:59.458Z,-0.90
2019-01-22T10:28:25.630Z,-0.70
2019-01-22T10:30:51.924Z,-0.60
2019-01-22T10:33:18.047Z,-0.50
2019-01-22T10:35:44.085Z,-0.50
2019-01-22T10:38:10.129Z,-0.40
2019-01-22T10:40:36.281Z,-0.50
2019-01-22T10:43:08.951Z,-0.50
2019-01-22T10:45:30.429Z,-0.40
2019-01-22T10:47:56.539Z,-0.30
2019-01-22T10:50:22.668Z,-0.20
2019-01-22T10:52:48.810Z,-0.20
2019-01-22T10:55:15.158Z,-0.30
2019-01-22T10:57:41.916Z,-0.30
2019-01-22T11:00:14.765Z,-0.20
2019-01-22T11:02:40.825Z,-0.10
2019-01-22T11:05:13.548Z,-0.10
2019-01-22T11:07:39.684Z,0.00
2019-01-22T11:10:06.421Z,-0.10
2019-01-22T11:12:32.489Z,-0.20
2019-01-22T11:14:58.525Z,-0.10
2019-01-22T11:17:24.597Z,0.00
2019-01-22T11:19:50.991Z,0.10
2019-01-22T11:22:17.017Z,0.00
2019-01-22T11:24:43.072Z,0.00
2019-01-22T11:27:09.161Z,-0.10
2019-01-22T11:29:35.199Z,0.00
2019-01-22T11:32:01.316Z,-0.10
2019-01-22T11:34:27.356Z,-0.10
2019-01-22T11:36:53.446Z,-0.10
2019-01-22T11:39:19.518Z,0.00
2019-01-22T11:41:45.544Z,-0.10
2019-01-22T11:44:11.609Z,0.00
2019-01-22T11:46:37.746Z,0.00
2019-01-22T11:49:03.754Z,0.00
2019-01-22T11:53:08.007Z,0.00
2019-01-22T11:55:34.049Z,0.10
2019-01-22T11:58:00.107Z,0.30
2019-01-22T12:00:34.184Z,0.30
2019-01-22T12:03:00.265Z,0.30
2019-01-22T12:05:26.303Z,0.40
2019-01-22T12:07:52.384Z,0.50
2019-01-22T12:10:18.412Z,0.60
2019-01-22T12:12:44.456Z,0.60
2019-01-22T12:15:14.108Z,0.70
2019-01-22T12:17:40.228Z,0.70
2019-01-22T12:20:10.070Z,0.70
2019-01-22T12:22:36.127Z,0.70
2019-01-22T12:25:05.140Z,0.70
2019-01-22T12:27:31.522Z,0.70
2019-01-22T12:29:57.637Z,0.80
2019-01-22T12:32:23.750Z,0.80
2019-01-22T12:34:49.922Z,0.70
2019-01-22T12:37:16.049Z,0.70
2019-01-22T12:39:42.088Z,0.60
2019-01-22T12:42:08.165Z,0.60
2019-01-22T12:44:34.227Z,0.60
2019-01-22T12:47:00.362Z,0.70
2019-01-22T12:49:26.522Z,0.60
2019-01-22T12:51:52.585Z,0.60
2019-01-22T12:54:18.632Z,0.50
2019-01-22T12:56:44.671Z,0.40
2019-01-22T12:59:10.709Z,0.40
2019-01-22T13:01:36.750Z,0.40
2019-01-22T13:04:03.617Z,0.40
2019-01-22T13:06:29.649Z,0.40
2019-01-22T13:08:55.673Z,0.40
2019-01-22T13:11:21.740Z,0.50
2019-01-22T13:13:47.779Z,0.50
2019-01-22T13:16:14.732Z,0.60
2019-01-22T13:18:40.858Z,0.60
2019-01-22T13:21:07.209Z,0.70
2019-01-22T13:23:33.696Z,0.60
2019-01-22T13:25:59.939Z,0.70
2019-01-22T13:28:26.252Z,0.70
2019-01-22T13:30:52.417Z,0.60
2019-01-22T13:33:18.584Z,0.70
2019-01-22T13:35:44.639Z,0.80
2019-01-22T13:38:10.865Z,0.80
2019-01-22T13:40:36.904Z,0.80
2019-01-22T13:43:03.399Z,0.80
2019-01-22T13:45:35.066Z,0.80
2019-01-22T13:48:03.886Z,0.80
2019-01-22T13:50:30.011Z,0.80
2019-01-22T13:52:56.071Z,0.70
2019-01-22T13:55:27.885Z,0.80
2019-01-22T13:57:54.092Z,0.80
2019-01-22T14:00:22.540Z,0.90
2019-01-22T14:02:49.488Z,0.90
2019-01-22T14:05:15.542Z,0.90
2019-01-22T14:07:41.631Z,0.90
2019-01-22T14:10:10.530Z,0.80
2019-01-22T14:12:36.647Z,0.90
2019-01-22T14:15:06.301Z,0.90
2019-01-22T14:17:32.333Z,0.90
2019-01-22T14:19:59.103Z,0.90
2019-01-22T14:22:25.566Z,0.90
2019-01-22T14:24:51.617Z,0.90
2019-01-22T14:27:17.777Z,0.90
2019-01-22T14:29:43.858Z,0.90
2019-01-22T14:32:10.246Z,0.90
2019-01-22T14:34:36.398Z,0.90
2019-01-22T14:37:02.465Z,0.90
2019-01-22T14:39:28.515Z,0.90
2019-01-22T14:41:54.554Z,0.80
2019-01-22T14:44:20.612Z,0.80
2019-01-22T14:46:46.646Z,0.80
2019-01-22T14:49:12.701Z,0.80
2019-01-22T14:51:40.181Z,0.70
2019-01-22T14:54:06.229Z,0.70
2019-01-22T14:56:32.576Z,0.70
2019-01-22T14:58:58.956Z,0.70
2019-01-22T15:01:25.141Z,0.70
2019-01-22T15:03:51.238Z,0.60
2019-01-22T15:06:17.389Z,0.60
2019-01-22T15:08:43.469Z,0.60
2019-01-22T15:11:10.316Z,0.60
2019-01-22T15:13:36.743Z,0.60
2019-01-22T15:16:02.816Z,0.50
2019-01-22T15:18:28.873Z,0.50
2019-01-22T15:20:54.921Z,0.50
2019-01-22T15:23:21.083Z,0.50
2019-01-22T15:25:47.189Z,0.50
2019-01-22T15:28:13.243Z,0.40
2019-01-22T15:30:40.434Z,0.40
2019-01-22T15:33:07.021Z,0.40
2019-01-22T15:35:33.197Z,0.40
2019-01-22T15:37:59.233Z,0.40
2019-01-22T15:40:28.264Z,0.40
2019-01-22T15:42:54.384Z,0.40
2019-01-22T15:45:20.681Z,0.30
2019-01-22T15:47:46.825Z,0.30
2019-01-22T15:50:15.214Z,0.30
2019-01-22T15:52:41.461Z,0.30
2019-01-22T15:55:11.325Z,0.30
2019-01-22T15:57:37.497Z,0.20
2019-01-22T16:00:07.367Z,0.20
2019-01-22T16:02:33.407Z,0.20
2019-01-22T16:04:59.619Z,0.20
2019-01-22T16:07:25.718Z,0.20
2019-01-22T16:09:51.761Z,0.10
2019-01-22T16:12:17.875Z,0.10
2019-01-22T16:14:45.702Z,0.10
2019-01-22T16:17:11.787Z,0.10
2019-01-22T16:19:37.946Z,0.10
2019-01-22T16:22:04.088Z,0.00
2019-01-22T16:24:30.132Z,0.00
2019-01-22T16:26:56.212Z,0.10
2019-01-22T16:29:22.271Z,0.10
2019-01-22T16:31:48.311Z,0.10
2019-01-22T16:34:14.386Z,0.00
2019-01-22T16:36:40.435Z,0.00
2019-01-22T16:39:07.092Z,0.00
2019-01-22T16:41:33.234Z,0.00
2019-01-22T16:43:59.333Z,0.00
2019-01-22T16:46:25.517Z,-0.10
2019-01-22T16:48:51.574Z,-0.10
2019-01-22T16:51:17.613Z,-0.10
2019-01-22T16:53:43.741Z,-0.20
2019-01-22T16:56:09.783Z,-0.10
2019-01-22T16:58:35.826Z,-0.20
2019-01-22T17:01:01.887Z,-0.20
2019-01-22T17:03:27.996Z,-0.20
2019-01-22T17:05:54.087Z,-0.20
2019-01-22T17:08:20.140Z,-0.30
2019-01-22T17:10:46.174Z,-0.30
2019-01-22T17:13:12.249Z,-0.30
2019-01-22T17:15:38.424Z,-0.30
2019-01-22T17:18:05.017Z,-0.30
2019-01-22T17:20:33.230Z,-0.40
2019-01-22T17:23:02.201Z,-0.40
2019-01-22T17:25:27.269Z,-0.40
2019-01-22T17:27:53.362Z,-0.40
2019-01-22T17:30:21.125Z,-0.40
2019-01-22T17:32:52.930Z,-0.40
2019-01-22T17:35:19.050Z,-0.40
2019-01-22T17:37:45.165Z,-0.50
2019-01-22T17:40:16.248Z,-0.50
2019-01-22T17:42:40.693Z,-0.40
2019-01-22T17:45:07.729Z,-0.50
2019-01-22T17:47:34.103Z,-0.50
2019-01-22T17:50:00.358Z,-0.60
2019-01-22T17:52:26.377Z,-0.60
2019-01-22T17:54:52.465Z,-0.60
2019-01-22T17:57:18.504Z,-0.60
2019-01-22T17:59:44.595Z,-0.60
2019-01-22T18:02:10.849Z,-0.60
2019-01-22T18:04:36.879Z,-0.60
2019-01-22T18:07:03.201Z,-0.70
2019-01-22T18:09:29.330Z,-0.70
2019-01-22T18:11:55.423Z,-0.70
2019-01-22T18:14:21.537Z,-0.70
2019-01-22T18:16:47.564Z,-0.80
2019-01-22T18:19:13.664Z,-0.80
2019-01-22T18:21:39.725Z,-0.80
2019-01-22T18:24:05.879Z,-0.90
2019-01-22T18:26:32.095Z,-0.90
2019-01-22T18:28:58.246Z,-0.90
2019-01-22T18:31:24.428Z,-0.90
2019-01-22T18:33:50.505Z,-0.90
2019-01-22T18:36:16.567Z,-0.90
2019-01-22T18:38:42.688Z,-1.00
2019-01-22T18:41:08.802Z,-0.90
2019-01-22T18:43:34.960Z,-0.90
2019-01-22T18:46:00.996Z,-0.90
2019-01-22T18:48:27.029Z,-0.90
2019-01-22T18:50:53.353Z,-1.00
2019-01-22T18:53:19.429Z,-1.00
2019-01-22T18:55:45.477Z,-1.00
2019-01-22T18:58:11.812Z,-1.00
2019-01-22T19:00:37.907Z,-1.10
2019-01-22T19:03:03.979Z,-1.10
2019-01-22T19:05:30.068Z,-1.20
2019-01-22T19:07:56.161Z,-1.20
2019-01-22T19:10:27.158Z,-1.20
2019-01-22T19:12:53.181Z,-1.20
2019-01-22T19:15:19.935Z,-1.20
2019-01-22T19:17:46.186Z,-1.20
2019-01-22T19:20:12.849Z,-1.30
2019-01-22T19:22:38.872Z,-1.30
2019-01-22T19:25:11.109Z,-1.30
2019-01-22T19:27:42.777Z,-1.30
2019-01-22T19:30:15.942Z,-1.30
2019-01-22T19:32:44.034Z,-1.30
2019-01-22T19:35:10.205Z,-1.40
2019-01-22T19:37:37.538Z,-1.40
2019-01-22T19:40:07.422Z,-1.40
2019-01-22T19:42:33.547Z,-1.50
2019-01-22T19:44:59.674Z,-1.50
2019-01-22T19:47:25.870Z,-1.50
2019-01-22T19:49:52.303Z,-1.50
2019-01-22T19:52:18.606Z,-1.50
2019-01-22T19:54:44.892Z,-1.60
2019-01-22T19:57:11.078Z,-1.60
2019-01-22T19:59:37.204Z,-1.70
2019-01-22T20:02:03.483Z,-1.70
2019-01-22T20:04:29.763Z,-1.80
2019-01-22T20:06:55.987Z,-1.70
2019-01-22T20:09:22.018Z,-1.80
2019-01-22T20:11:48.148Z,-1.80
2019-01-22T20:14:14.369Z,-1.80
2019-01-22T20:16:40.446Z,-1.80
2019-01-22T20:19:06.871Z,-1.80
2019-01-22T20:21:33.105Z,-1.80
2019-01-22T20:23:59.267Z,-1.90
2019-01-22T20:26:25.441Z,-1.90
2019-01-22T20:28:51.456Z,-1.90
2019-01-22T20:31:17.589Z,-1.90
2019-01-22T20:34:03.653Z,-2.00
2019-01-22T20:36:29.729Z,-2.00
2019-01-22T20:38:55.780Z,-2.00
2019-01-22T20:41:21.935Z,-2.10
2019-01-22T20:43:48.100Z,-2.10
2019-01-22T20:46:14.244Z,-2.10
2019-01-22T20:48:40.520Z,-2.10
2019-01-22T20:51:07.670Z,-2.20
2019-01-22T20:53:33.780Z,-2.20
2019-01-22T20:55:59.820Z,-2.20
2019-01-22T20:58:26.090Z,-2.20
2019-01-22T21:00:52.231Z,-2.20
2019-01-22T21:03:18.273Z,-2.20
2019-01-22T21:05:44.370Z,-2.20
2019-01-22T21:08:10.625Z,-2.30
2019-01-22T21:10:37.495Z,-2.30
2019-01-22T21:13:04.579Z,-2.30
2019-01-22T21:15:30.905Z,-2.30
2019-01-22T21:17:56.988Z,-2.40
2019-01-22T21:20:23.403Z,-2.30
2019-01-22T21:22:49.502Z,-2.40
2019-01-22T21:25:18.544Z,-2.40
2019-01-22T21:27:44.603Z,-2.40
2019-01-22T21:30:15.625Z,-2.40
2019-01-22T21:32:41.750Z,-2.40
2019-01-22T21:35:08.468Z,-2.40
2019-01-22T21:37:34.731Z,-2.40
2019-01-22T21:40:08.817Z,-2.50
2019-01-22T21:42:35.490Z,-2.50
2019-01-22T21:45:01.755Z,-2.50
2019-01-22T21:47:28.129Z,-2.50
2019-01-22T21:49:54.240Z,-2.50
2019-01-22T21:52:20.292Z,-2.50
2019-01-22T21:54:46.367Z,-2.50
2019-01-22T21:57:12.419Z,-2.50
2019-01-22T21:59:38.446Z,-2.60
2019-01-22T22:02:04.754Z,-2.60
2019-01-22T22:04:30.878Z,-2.60
2019-01-22T22:06:56.933Z,-2.60
2019-01-22T22:09:22.988Z,-2.60
2019-01-22T22:11:49.051Z,-2.60
2019-01-22T22:14:15.092Z,-2.60
2019-01-22T22:16:41.161Z,-2.60
2019-01-22T22:19:07.510Z,-2.70
2019-01-22T22:21:33.870Z,-2.70
2019-01-22T22:24:00.004Z,-2.70
2019-01-22T22:26:26.062Z,-2.70
2019-01-22T22:28:52.113Z,-2.70
2019-01-22T22:31:18.196Z,-2.70
2019-01-22T22:33:44.288Z,-2.70
2019-01-22T22:36:10.432Z,-2.80
2019-01-22T22:38:36.548Z,-2.80
2019-01-22T22:41:02.694Z,-2.80
2019-01-22T22:43:28.808Z,-2.80
2019-01-22T22:45:54.870Z,-2.80
2019-01-22T22:48:20.982Z,-2.80
2019-01-22T22:50:47.636Z,-2.80
2019-01-22T22:53:13.673Z,-2.80
2019-01-22T22:55:39.765Z,-2.80
2019-01-22T22:58:05.833Z,-2.80
2019-01-22T23:00:39.181Z,-2.80
2019-01-22T23:03:06.239Z,-2.90
2019-01-22T23:05:32.589Z,-2.90
2019-01-22T23:07:58.651Z,-2.90
2019-01-22T23:10:24.910Z,-2.90
2019-01-22T23:12:50.986Z,-2.90
2019-01-22T23:15:17.234Z,-2.90
2019-01-22T23:17:43.338Z,-2.90
2019-01-22T23:20:09.644Z,-2.90
2019-01-22T23:22:35.699Z,-2.90
2019-01-22T23:25:02.638Z,-3.00
2019-01-22T23:27:28.683Z,-3.00
2019-01-22T23:29:54.769Z,-3.00
2019-01-22T23:32:23.392Z,-2.90
2019-01-22T23:34:49.546Z,-2.90
2019-01-22T23:37:15.756Z,-2.90
2019-01-22T23:39:41.791Z,-2.90
2019-01-22T23:42:07.829Z,-3.00
2019-01-22T23:44:34.149Z,-3.00
2019-01-22T23:47:00.276Z,-3.00
2019-01-22T23:49:26.322Z,-3.00
2019-01-22T23:51:52.720Z,-3.00
2019-01-22T23:54:18.758Z,-3.00
2019-01-22T23:56:44.806Z,-3.00
2019-01-22T23:59:10.895Z,-3.00
